X  CloseMetar Aviation Weather Data     YMAV Avalon

Temperature

13°C Temperature

10°C Dewpoint

82% Humidity



Wind

11 KM/H

 7 MPH

 3 M/S

 6 KTS



260°
Due West
Current Conditions

Overcast Overcast
Pressure 1014.92 (hPa) - 29.97 (in)
Visibility 6.2 (mi) - 10 (km)
Airport
Airport-code YMAV

Location Avalon 44 (km)

Metar:
YMAV 141500Z AUTO 26006KT 9999 // OVC017 13/10 Q1015 RF00.0/000.2

Time: 15-10-2019 02:00